AFL1184 UUEE-URWW
Flight info
| Callsign | AFL1184 |
|---|---|
| Flight time | 1h 36m |
| Altitude | 37000 |
| Route | TOGMO3H TOGMO M56 ABAGI B105 NIMTA/K0841F380 B105 NATIT NATIT2J |
| Aircraft | A320/M-SDE3FGHIRWY/LB1 |
Departure
| Time | 2026-04-26 16:39 |
|---|---|
| Airport | Sheremetyevo International Airport (UUEE) |
Arrival
| Time | 2026-04-26 18:16 |
|---|---|
| Airport | Volgograd International Airport (URWW) |
| Time | Latitude | Longitude | Altitude | Speed | Heading |
|---|---|---|---|---|---|
| 2026-04-26 15:54 | 55.97858 | 37.41223 | 624 ft | 0 kts | 255° |
| 2026-04-26 16:27 | 55.97858 | 37.41225 | 624 ft | 1 kts | 255° |
| 2026-04-26 16:27 | 55.97862 | 37.41251 | 624 ft | 2 kts | 254° |
| 2026-04-26 16:27 | 55.97866 | 37.41277 | 623 ft | 2 kts | 255° |
| 2026-04-26 16:28 | 55.97870 | 37.41301 | 623 ft | 1 kts | 255° |
| 2026-04-26 16:28 | 55.97872 | 37.41318 | 623 ft | 2 kts | 244° |
| 2026-04-26 16:28 | 55.97881 | 37.41341 | 622 ft | 2 kts | 225° |
| 2026-04-26 16:28 | 55.97893 | 37.41357 | 622 ft | 2 kts | 206° |
| 2026-04-26 16:29 | 55.97907 | 37.41367 | 622 ft | 2 kts | 188° |
| 2026-04-26 16:29 | 55.97922 | 37.41367 | 622 ft | 1 kts | 170° |
| 2026-04-26 16:29 | 55.97929 | 37.41365 | 622 ft | 1 kts | 163° |
| 2026-04-26 16:29 | 55.97931 | 37.41363 | 622 ft | 0 kts | 165° |
| 2026-04-26 16:31 | 55.97930 | 37.41364 | 622 ft | 1 kts | 165° |
| 2026-04-26 16:31 | 55.97917 | 37.41369 | 622 ft | 1 kts | 166° |
| 2026-04-26 16:32 | 55.97897 | 37.41378 | 622 ft | 4 kts | 166° |
| 2026-04-26 16:32 | 55.97871 | 37.41390 | 622 ft | 6 kts | 165° |
| 2026-04-26 16:32 | 55.97794 | 37.41421 | 622 ft | 10 kts | 165° |
| 2026-04-26 16:32 | 55.97732 | 37.41455 | 623 ft | 9 kts | 165° |
| 2026-04-26 16:33 | 55.97686 | 37.41483 | 623 ft | 5 kts | 135° |
| 2026-04-26 16:33 | 55.97675 | 37.41562 | 623 ft | 8 kts | 119° |
| 2026-04-26 16:33 | 55.97621 | 37.41591 | 623 ft | 7 kts | 168° |
| 2026-04-26 16:33 | 55.97602 | 37.41678 | 622 ft | 10 kts | 70° |
| 2026-04-26 16:34 | 55.97627 | 37.41832 | 619 ft | 15 kts | 76° |
| 2026-04-26 16:34 | 55.97657 | 37.42039 | 615 ft | 19 kts | 75° |
| 2026-04-26 16:34 | 55.97695 | 37.42289 | 613 ft | 22 kts | 74° |
| 2026-04-26 16:34 | 55.97729 | 37.42530 | 611 ft | 18 kts | 75° |
| 2026-04-26 16:35 | 55.97758 | 37.42722 | 609 ft | 12 kts | 75° |
| 2026-04-26 16:35 | 55.97781 | 37.42874 | 609 ft | 13 kts | 75° |
| 2026-04-26 16:35 | 55.97805 | 37.43039 | 608 ft | 14 kts | 74° |
| 2026-04-26 16:35 | 55.97833 | 37.43216 | 609 ft | 14 kts | 75° |
| 2026-04-26 16:36 | 55.97858 | 37.43382 | 612 ft | 13 kts | 75° |
| 2026-04-26 16:36 | 55.97883 | 37.43552 | 614 ft | 14 kts | 75° |
| 2026-04-26 16:36 | 55.97906 | 37.43704 | 615 ft | 8 kts | 75° |
| 2026-04-26 16:36 | 55.97923 | 37.43812 | 617 ft | 9 kts | 74° |
| 2026-04-26 16:37 | 55.97941 | 37.43926 | 619 ft | 9 kts | 75° |
| 2026-04-26 16:37 | 55.97935 | 37.44020 | 620 ft | 7 kts | 141° |
| 2026-04-26 16:37 | 55.97917 | 37.44033 | 619 ft | 0 kts | 165° |
| 2026-04-26 16:38 | 55.97916 | 37.44034 | 619 ft | 0 kts | 165° |
| 2026-04-26 16:38 | 55.97901 | 37.44040 | 619 ft | 4 kts | 166° |
| 2026-04-26 16:38 | 55.97847 | 37.44064 | 618 ft | 10 kts | 166° |
| 2026-04-26 16:38 | 55.97785 | 37.44052 | 617 ft | 9 kts | 234° |
| 2026-04-26 16:39 | 55.97751 | 37.43834 | 615 ft | 43 kts | 255° |
| 2026-04-26 16:39 | 55.97603 | 37.42854 | 608 ft | 116 kts | 255° |
| 2026-04-26 16:39 | 55.97339 | 37.41141 | 764 ft | 158 kts | 258° |
| 2026-04-26 16:39 | 55.97041 | 37.39199 | 1334 ft | 167 kts | 259° |
| 2026-04-26 16:40 | 55.96736 | 37.37295 | 2209 ft | 161 kts | 261° |
| 2026-04-26 16:40 | 55.96428 | 37.35369 | 2789 ft | 167 kts | 261° |
| 2026-04-26 16:40 | 55.96109 | 37.33295 | 3171 ft | 183 kts | 262° |
| 2026-04-26 16:40 | 55.95757 | 37.31004 | 3558 ft | 200 kts | 261° |
| 2026-04-26 16:41 | 55.95368 | 37.28465 | 3899 ft | 223 kts | 260° |
| 2026-04-26 16:41 | 55.94941 | 37.25716 | 4375 ft | 241 kts | 259° |
| 2026-04-26 16:41 | 55.94471 | 37.22728 | 4859 ft | 259 kts | 259° |
| 2026-04-26 16:41 | 55.93974 | 37.19577 | 5476 ft | 271 kts | 258° |
| 2026-04-26 16:42 | 55.93457 | 37.16324 | 6300 ft | 275 kts | 257° |
| 2026-04-26 16:42 | 55.92938 | 37.13059 | 7178 ft | 278 kts | 257° |
| 2026-04-26 16:42 | 55.92407 | 37.09703 | 7961 ft | 284 kts | 256° |
| 2026-04-26 16:42 | 55.91869 | 37.06302 | 8756 ft | 290 kts | 256° |
| 2026-04-26 16:43 | 55.91606 | 37.02753 | 9454 ft | 293 kts | 278° |
| 2026-04-26 16:43 | 55.92285 | 36.99404 | 9866 ft | 293 kts | 307° |
| 2026-04-26 16:43 | 55.93763 | 36.96927 | 9970 ft | 290 kts | 329° |
| 2026-04-26 16:43 | 55.95437 | 36.94963 | 9967 ft | 288 kts | 329° |
| 2026-04-26 16:44 | 55.97118 | 36.92987 | 10016 ft | 291 kts | 332° |
| 2026-04-26 16:44 | 55.98988 | 36.91695 | 10516 ft | 294 kts | 357° |
| 2026-04-26 16:44 | 56.00970 | 36.92146 | 11400 ft | 289 kts | 23° |
| 2026-04-26 16:44 | 56.02732 | 36.93920 | 12080 ft | 294 kts | 36° |
| 2026-04-26 16:45 | 56.04440 | 36.95979 | 12664 ft | 304 kts | 36° |
| 2026-04-26 16:45 | 56.06222 | 36.98123 | 13279 ft | 312 kts | 36° |
| 2026-04-26 16:45 | 56.08035 | 37.00274 | 13889 ft | 320 kts | 36° |
| 2026-04-26 16:45 | 56.09909 | 37.02482 | 14501 ft | 326 kts | 38° |
| 2026-04-26 16:46 | 56.11624 | 37.05179 | 15122 ft | 325 kts | 58° |
| 2026-04-26 16:46 | 56.12608 | 37.08727 | 15626 ft | 323 kts | 81° |
| 2026-04-26 16:46 | 56.13144 | 37.12711 | 15937 ft | 336 kts | 83° |
| 2026-04-26 16:46 | 56.13671 | 37.16877 | 16330 ft | 348 kts | 83° |
| 2026-04-26 16:47 | 56.14239 | 37.21135 | 16910 ft | 354 kts | 82° |
| 2026-04-26 16:47 | 56.14819 | 37.25435 | 17501 ft | 356 kts | 85° |
| 2026-04-26 16:47 | 56.14870 | 37.29756 | 18010 ft | 344 kts | 109° |
| 2026-04-26 16:47 | 56.14006 | 37.33595 | 18559 ft | 330 kts | 130° |
| 2026-04-26 16:48 | 56.12462 | 37.36543 | 19142 ft | 320 kts | 149° |
| 2026-04-26 16:48 | 56.10543 | 37.38409 | 19713 ft | 316 kts | 159° |
| 2026-04-26 16:48 | 56.08534 | 37.40082 | 20354 ft | 318 kts | 159° |
| 2026-04-26 16:48 | 56.06536 | 37.41754 | 20929 ft | 320 kts | 160° |
| 2026-04-26 16:49 | 56.04520 | 37.43447 | 21468 ft | 323 kts | 160° |
| 2026-04-26 16:49 | 56.02513 | 37.45132 | 22040 ft | 324 kts | 160° |
| 2026-04-26 16:49 | 56.00454 | 37.46859 | 22588 ft | 326 kts | 160° |
| 2026-04-26 16:49 | 55.98423 | 37.48560 | 23106 ft | 327 kts | 160° |
| 2026-04-26 16:50 | 55.96397 | 37.50461 | 23599 ft | 336 kts | 151° |
| 2026-04-26 16:50 | 55.94697 | 37.53471 | 24046 ft | 355 kts | 134° |
| 2026-04-26 16:50 | 55.93568 | 37.57499 | 24504 ft | 377 kts | 116° |
| 2026-04-26 16:50 | 55.92992 | 37.62103 | 24989 ft | 386 kts | 110° |
| 2026-04-26 16:51 | 55.92473 | 37.66837 | 25411 ft | 390 kts | 111° |
| 2026-04-26 16:51 | 55.91869 | 37.71452 | 25824 ft | 386 kts | 117° |
| 2026-04-26 16:51 | 55.90971 | 37.75945 | 26250 ft | 381 kts | 123° |
| 2026-04-26 16:51 | 55.89820 | 37.80150 | 26668 ft | 377 kts | 128° |
| 2026-04-26 16:52 | 55.88547 | 37.84259 | 27113 ft | 378 kts | 129° |
| 2026-04-26 16:52 | 55.88137 | 37.85563 | 27246 ft | 379 kts | 129° |
| 2026-04-26 16:52 | 55.85973 | 37.92426 | 27956 ft | 382 kts | 129° |
| 2026-04-26 16:52 | 55.84545 | 37.96362 | 28335 ft | 372 kts | 140° |
| 2026-04-26 16:53 | 55.82631 | 37.99316 | 28705 ft | 358 kts | 155° |
| 2026-04-26 16:53 | 55.80414 | 38.01157 | 29078 ft | 350 kts | 169° |
| 2026-04-26 16:53 | 55.78028 | 38.01904 | 29410 ft | 345 kts | 181° |
| 2026-04-26 16:53 | 55.75638 | 38.01523 | 29788 ft | 344 kts | 193° |
| 2026-04-26 16:54 | 55.73395 | 38.00104 | 30151 ft | 346 kts | 205° |
| 2026-04-26 16:54 | 55.71389 | 37.97730 | 30464 ft | 353 kts | 214° |
| 2026-04-26 16:54 | 55.69466 | 37.95000 | 30601 ft | 358 kts | 213° |
| 2026-04-26 16:54 | 55.67370 | 37.92548 | 30725 ft | 361 kts | 206° |
| 2026-04-26 16:55 | 55.65098 | 37.90598 | 30862 ft | 364 kts | 200° |
| 2026-04-26 16:55 | 55.62659 | 37.89213 | 30967 ft | 368 kts | 193° |
| 2026-04-26 16:55 | 55.60160 | 37.88460 | 31078 ft | 372 kts | 187° |
| 2026-04-26 16:55 | 55.57542 | 37.88353 | 31285 ft | 376 kts | 179° |
| 2026-04-26 16:56 | 55.52325 | 37.89033 | 31612 ft | 377 kts | 178° |
| 2026-04-26 16:56 | 55.49705 | 37.89411 | 31700 ft | 380 kts | 178° |
| 2026-04-26 16:57 | 55.44420 | 37.90703 | 31883 ft | 388 kts | 172° |
| 2026-04-26 16:57 | 55.41800 | 37.91844 | 31990 ft | 391 kts | 168° |
| 2026-04-26 16:57 | 55.36633 | 37.95115 | 32181 ft | 400 kts | 161° |
| 2026-04-26 16:58 | 55.33259 | 37.98072 | 32308 ft | 407 kts | 156° |
| 2026-04-26 16:58 | 55.26874 | 38.05286 | 32552 ft | 416 kts | 152° |
| 2026-04-26 16:59 | 55.24433 | 38.08136 | 32637 ft | 418 kts | 152° |
| 2026-04-26 16:59 | 55.19604 | 38.13774 | 32845 ft | 421 kts | 152° |
| 2026-04-26 17:00 | 55.14717 | 38.19473 | 33003 ft | 426 kts | 152° |
| 2026-04-26 17:00 | 55.09757 | 38.25242 | 33230 ft | 429 kts | 152° |
| 2026-04-26 17:00 | 55.07287 | 38.28110 | 33345 ft | 431 kts | 152° |
| 2026-04-26 17:01 | 55.04766 | 38.31033 | 33462 ft | 432 kts | 152° |
| 2026-04-26 17:01 | 55.02256 | 38.33940 | 33577 ft | 433 kts | 152° |
| 2026-04-26 17:01 | 54.99756 | 38.36828 | 33692 ft | 435 kts | 152° |
| 2026-04-26 17:01 | 54.97225 | 38.39748 | 33851 ft | 436 kts | 152° |
| 2026-04-26 17:02 | 54.94712 | 38.42642 | 34027 ft | 437 kts | 152° |
| 2026-04-26 17:02 | 54.92182 | 38.45552 | 34225 ft | 437 kts | 152° |
| 2026-04-26 17:02 | 54.89664 | 38.48445 | 34392 ft | 437 kts | 152° |
| 2026-04-26 17:02 | 54.87114 | 38.51366 | 34578 ft | 438 kts | 152° |
| 2026-04-26 17:03 | 54.84573 | 38.54276 | 34735 ft | 439 kts | 152° |
| 2026-04-26 17:03 | 54.82010 | 38.57204 | 34867 ft | 440 kts | 152° |
| 2026-04-26 17:03 | 54.79430 | 38.60149 | 34998 ft | 441 kts | 152° |
| 2026-04-26 17:03 | 54.76865 | 38.63065 | 35131 ft | 442 kts | 152° |
| 2026-04-26 17:04 | 54.74243 | 38.65851 | 35262 ft | 442 kts | 155° |
| 2026-04-26 17:04 | 54.71588 | 38.68615 | 35405 ft | 442 kts | 154° |
| 2026-04-26 17:04 | 54.68971 | 38.71351 | 35534 ft | 443 kts | 154° |
| 2026-04-26 17:04 | 54.66338 | 38.74095 | 35619 ft | 444 kts | 154° |
| 2026-04-26 17:05 | 54.61039 | 38.79596 | 35814 ft | 446 kts | 154° |
| 2026-04-26 17:05 | 54.58367 | 38.82373 | 35928 ft | 447 kts | 154° |
| 2026-04-26 17:05 | 54.55711 | 38.85130 | 36035 ft | 447 kts | 154° |
| 2026-04-26 17:06 | 54.50391 | 38.90634 | 36193 ft | 449 kts | 154° |
| 2026-04-26 17:06 | 54.45101 | 38.96414 | 36309 ft | 455 kts | 148° |
| 2026-04-26 17:07 | 54.40425 | 39.03779 | 36323 ft | 465 kts | 137° |
| 2026-04-26 17:07 | 54.36589 | 39.12907 | 36328 ft | 472 kts | 124° |
| 2026-04-26 17:08 | 54.33830 | 39.23157 | 36328 ft | 478 kts | 117° |
| 2026-04-26 17:08 | 54.31322 | 39.33760 | 36335 ft | 479 kts | 117° |
| 2026-04-26 17:09 | 54.29630 | 39.40778 | 36335 ft | 478 kts | 117° |
| 2026-04-26 17:09 | 54.26221 | 39.54766 | 36337 ft | 477 kts | 117° |
| 2026-04-26 17:10 | 54.23649 | 39.65240 | 36348 ft | 477 kts | 118° |
| 2026-04-26 17:10 | 54.21071 | 39.75693 | 36335 ft | 478 kts | 118° |
| 2026-04-26 17:11 | 54.18470 | 39.86181 | 36340 ft | 478 kts | 118° |
| 2026-04-26 17:11 | 54.15875 | 39.96600 | 36349 ft | 478 kts | 118° |
| 2026-04-26 17:12 | 54.12025 | 40.12283 | 36364 ft | 480 kts | 115° |
| 2026-04-26 17:13 | 54.09049 | 40.28624 | 36365 ft | 483 kts | 111° |
| 2026-04-26 17:14 | 54.06200 | 40.45059 | 36374 ft | 483 kts | 111° |
| 2026-04-26 17:14 | 54.03316 | 40.61469 | 36382 ft | 484 kts | 111° |
| 2026-04-26 17:15 | 54.00383 | 40.77998 | 36393 ft | 484 kts | 112° |
| 2026-04-26 17:16 | 53.98424 | 40.88940 | 36405 ft | 484 kts | 112° |
| 2026-04-26 17:16 | 53.96471 | 40.99780 | 36403 ft | 483 kts | 112° |
| 2026-04-26 17:17 | 53.94572 | 41.10731 | 36417 ft | 484 kts | 111° |
| 2026-04-26 17:17 | 53.92790 | 41.21754 | 36418 ft | 485 kts | 111° |
| 2026-04-26 17:18 | 53.90981 | 41.32822 | 36422 ft | 485 kts | 111° |
| 2026-04-26 17:18 | 53.89151 | 41.43861 | 36432 ft | 486 kts | 111° |
| 2026-04-26 17:19 | 53.86380 | 41.60404 | 36440 ft | 486 kts | 111° |
| 2026-04-26 17:19 | 53.84520 | 41.71400 | 36447 ft | 487 kts | 112° |
| 2026-04-26 17:20 | 53.83270 | 41.78768 | 36457 ft | 487 kts | 112° |
| 2026-04-26 17:20 | 53.80758 | 41.93441 | 36465 ft | 487 kts | 112° |
| 2026-04-26 17:21 | 53.78867 | 42.04391 | 36481 ft | 486 kts | 112° |
| 2026-04-26 17:21 | 53.76954 | 42.15390 | 36498 ft | 487 kts | 112° |
| 2026-04-26 17:22 | 53.75040 | 42.26327 | 36504 ft | 487 kts | 112° |
| 2026-04-26 17:22 | 53.73110 | 42.37288 | 36506 ft | 488 kts | 112° |
| 2026-04-26 17:23 | 53.71172 | 42.48223 | 36517 ft | 487 kts | 112° |
| 2026-04-26 17:23 | 53.68721 | 42.58722 | 36523 ft | 475 kts | 126° |
| 2026-04-26 17:24 | 53.64743 | 42.67279 | 36528 ft | 458 kts | 144° |
| 2026-04-26 17:24 | 53.59644 | 42.73410 | 36533 ft | 442 kts | 160° |
| 2026-04-26 17:25 | 53.54060 | 42.77569 | 36547 ft | 439 kts | 164° |
| 2026-04-26 17:25 | 53.48428 | 42.81586 | 36544 ft | 439 kts | 164° |
| 2026-04-26 17:26 | 53.42795 | 42.85622 | 36549 ft | 439 kts | 164° |
| 2026-04-26 17:26 | 53.37191 | 42.89641 | 36552 ft | 439 kts | 164° |
| 2026-04-26 17:27 | 53.31598 | 42.93644 | 36554 ft | 439 kts | 164° |
| 2026-04-26 17:27 | 53.25986 | 42.97650 | 36556 ft | 439 kts | 164° |
| 2026-04-26 17:28 | 53.20363 | 43.01654 | 36564 ft | 438 kts | 164° |
| 2026-04-26 17:28 | 53.14751 | 43.05636 | 36580 ft | 440 kts | 164° |
| 2026-04-26 17:29 | 53.11005 | 43.08348 | 36591 ft | 440 kts | 163° |
| 2026-04-26 17:29 | 53.03556 | 43.13913 | 36588 ft | 441 kts | 162° |
| 2026-04-26 17:30 | 52.97956 | 43.18082 | 36591 ft | 440 kts | 163° |
| 2026-04-26 17:30 | 52.92395 | 43.22200 | 36600 ft | 440 kts | 163° |
| 2026-04-26 17:31 | 52.86784 | 43.26338 | 36605 ft | 440 kts | 163° |
| 2026-04-26 17:31 | 52.81171 | 43.30463 | 36615 ft | 440 kts | 163° |
| 2026-04-26 17:32 | 52.75539 | 43.34592 | 36613 ft | 441 kts | 163° |
| 2026-04-26 17:32 | 52.69971 | 43.38663 | 36613 ft | 441 kts | 163° |
| 2026-04-26 17:33 | 52.64344 | 43.42763 | 36627 ft | 441 kts | 163° |
| 2026-04-26 17:34 | 52.55947 | 43.48862 | 36638 ft | 441 kts | 163° |
| 2026-04-26 17:34 | 52.50366 | 43.52901 | 36642 ft | 441 kts | 163° |
| 2026-04-26 17:35 | 52.44718 | 43.56976 | 36637 ft | 441 kts | 163° |
| 2026-04-26 17:35 | 52.39121 | 43.61006 | 36644 ft | 441 kts | 163° |
| 2026-04-26 17:36 | 52.33480 | 43.65054 | 36648 ft | 442 kts | 164° |
| 2026-04-26 17:36 | 52.27856 | 43.69080 | 36651 ft | 441 kts | 164° |
| 2026-04-26 17:37 | 52.22240 | 43.73089 | 36644 ft | 441 kts | 164° |
| 2026-04-26 17:37 | 52.16617 | 43.77090 | 36643 ft | 442 kts | 164° |
| 2026-04-26 17:38 | 52.08155 | 43.83094 | 36654 ft | 442 kts | 164° |
| 2026-04-26 17:38 | 52.02516 | 43.87081 | 36666 ft | 442 kts | 164° |
| 2026-04-26 17:39 | 51.96888 | 43.91047 | 36677 ft | 441 kts | 164° |
| 2026-04-26 17:39 | 51.91230 | 43.95025 | 36423 ft | 441 kts | 164° |
| 2026-04-26 17:40 | 51.87495 | 43.97642 | 36552 ft | 442 kts | 164° |
| 2026-04-26 17:40 | 51.82749 | 44.00961 | 36666 ft | 445 kts | 164° |
| 2026-04-26 17:40 | 51.79935 | 44.02927 | 36691 ft | 445 kts | 163° |
| 2026-04-26 17:41 | 51.74265 | 44.06882 | 36709 ft | 445 kts | 163° |
| 2026-04-26 17:41 | 51.68580 | 44.10834 | 36705 ft | 445 kts | 163° |
| 2026-04-26 17:42 | 51.62865 | 44.14798 | 36717 ft | 446 kts | 163° |
| 2026-04-26 17:42 | 51.57184 | 44.18727 | 36405 ft | 445 kts | 164° |
| 2026-04-26 17:43 | 51.54333 | 44.20696 | 36174 ft | 445 kts | 163° |
| 2026-04-26 17:43 | 51.51490 | 44.22655 | 35983 ft | 446 kts | 164° |
| 2026-04-26 17:43 | 51.48625 | 44.24628 | 35819 ft | 446 kts | 164° |
| 2026-04-26 17:43 | 51.45774 | 44.26588 | 35737 ft | 445 kts | 164° |
| 2026-04-26 17:44 | 51.40102 | 44.30475 | 35729 ft | 445 kts | 164° |
| 2026-04-26 17:44 | 51.34402 | 44.34371 | 35724 ft | 447 kts | 164° |
| 2026-04-26 17:45 | 51.28717 | 44.38246 | 35731 ft | 447 kts | 164° |
| 2026-04-26 17:45 | 51.22978 | 44.42034 | 35745 ft | 444 kts | 167° |
| 2026-04-26 17:46 | 51.17117 | 44.44681 | 35750 ft | 436 kts | 175° |
| 2026-04-26 17:46 | 51.11118 | 44.45958 | 35735 ft | 429 kts | 183° |
| 2026-04-26 17:47 | 51.07160 | 44.46051 | 35750 ft | 425 kts | 188° |
| 2026-04-26 17:47 | 50.99308 | 44.45343 | 35757 ft | 423 kts | 189° |
| 2026-04-26 17:48 | 50.93432 | 44.44799 | 35758 ft | 425 kts | 189° |
| 2026-04-26 17:48 | 50.87551 | 44.44256 | 35766 ft | 425 kts | 189° |
| 2026-04-26 17:49 | 50.81614 | 44.43706 | 35760 ft | 425 kts | 189° |
| 2026-04-26 17:49 | 50.75700 | 44.43161 | 35756 ft | 425 kts | 189° |
| 2026-04-26 17:50 | 50.69772 | 44.42611 | 35759 ft | 426 kts | 189° |
| 2026-04-26 17:50 | 50.63890 | 44.42069 | 35763 ft | 426 kts | 189° |
| 2026-04-26 17:51 | 50.60923 | 44.41795 | 35634 ft | 426 kts | 189° |
| 2026-04-26 17:51 | 50.57973 | 44.41526 | 35400 ft | 425 kts | 189° |
| 2026-04-26 17:51 | 50.55047 | 44.41260 | 35012 ft | 422 kts | 189° |
| 2026-04-26 17:51 | 50.52111 | 44.40995 | 34474 ft | 419 kts | 189° |
| 2026-04-26 17:52 | 50.49224 | 44.40731 | 33814 ft | 419 kts | 189° |
| 2026-04-26 17:52 | 50.46312 | 44.40462 | 33116 ft | 419 kts | 189° |
| 2026-04-26 17:52 | 50.43413 | 44.40193 | 32407 ft | 419 kts | 189° |
| 2026-04-26 17:52 | 50.40513 | 44.39926 | 31623 ft | 420 kts | 189° |
| 2026-04-26 17:53 | 50.37607 | 44.39659 | 30832 ft | 421 kts | 189° |
| 2026-04-26 17:53 | 50.34665 | 44.39390 | 29966 ft | 422 kts | 189° |
| 2026-04-26 17:53 | 50.31730 | 44.39121 | 29200 ft | 420 kts | 188° |
| 2026-04-26 17:54 | 50.25969 | 44.38604 | 28181 ft | 414 kts | 188° |
| 2026-04-26 17:54 | 50.23104 | 44.38347 | 27648 ft | 411 kts | 188° |
| 2026-04-26 17:54 | 50.20241 | 44.38088 | 27095 ft | 407 kts | 188° |
| 2026-04-26 17:54 | 50.17440 | 44.37838 | 26574 ft | 403 kts | 188° |
| 2026-04-26 17:55 | 50.14657 | 44.37588 | 26036 ft | 399 kts | 188° |
| 2026-04-26 17:55 | 50.11911 | 44.37342 | 25511 ft | 395 kts | 188° |
| 2026-04-26 17:55 | 50.09168 | 44.37095 | 24982 ft | 391 kts | 188° |
| 2026-04-26 17:55 | 50.06491 | 44.36853 | 24467 ft | 388 kts | 188° |
| 2026-04-26 17:56 | 50.03781 | 44.36610 | 23933 ft | 384 kts | 188° |
| 2026-04-26 17:56 | 49.98523 | 44.36139 | 22906 ft | 377 kts | 188° |
| 2026-04-26 17:57 | 49.93343 | 44.35673 | 21896 ft | 370 kts | 188° |
| 2026-04-26 17:57 | 49.90816 | 44.35447 | 21411 ft | 366 kts | 188° |
| 2026-04-26 17:57 | 49.88277 | 44.35221 | 20934 ft | 363 kts | 188° |
| 2026-04-26 17:57 | 49.85744 | 44.34993 | 20445 ft | 360 kts | 188° |
| 2026-04-26 17:58 | 49.78321 | 44.34331 | 18989 ft | 351 kts | 188° |
| 2026-04-26 17:59 | 49.73475 | 44.33899 | 18029 ft | 347 kts | 188° |
| 2026-04-26 17:59 | 49.71060 | 44.33683 | 17557 ft | 345 kts | 188° |
| 2026-04-26 17:59 | 49.68677 | 44.33472 | 17078 ft | 343 kts | 188° |
| 2026-04-26 17:59 | 49.66302 | 44.33260 | 16578 ft | 342 kts | 187° |
| 2026-04-26 18:00 | 49.63940 | 44.33052 | 16110 ft | 340 kts | 187° |
| 2026-04-26 18:00 | 49.61588 | 44.32846 | 15692 ft | 337 kts | 187° |
| 2026-04-26 18:00 | 49.59251 | 44.32640 | 15251 ft | 334 kts | 187° |
| 2026-04-26 18:00 | 49.56948 | 44.32465 | 14784 ft | 334 kts | 186° |
| 2026-04-26 18:01 | 49.54623 | 44.32467 | 14301 ft | 334 kts | 184° |
| 2026-04-26 18:01 | 49.52319 | 44.32501 | 13824 ft | 332 kts | 184° |
| 2026-04-26 18:01 | 49.49994 | 44.32535 | 13337 ft | 331 kts | 184° |
| 2026-04-26 18:01 | 49.47715 | 44.32568 | 12855 ft | 329 kts | 184° |
| 2026-04-26 18:02 | 49.45427 | 44.32601 | 12360 ft | 327 kts | 184° |
| 2026-04-26 18:02 | 49.44663 | 44.32613 | 12193 ft | 326 kts | 184° |
| 2026-04-26 18:02 | 49.40888 | 44.32669 | 11371 ft | 322 kts | 184° |
| 2026-04-26 18:02 | 49.38664 | 44.32701 | 10871 ft | 320 kts | 184° |
| 2026-04-26 18:03 | 49.36475 | 44.32733 | 10530 ft | 311 kts | 185° |
| 2026-04-26 18:03 | 49.34347 | 44.32771 | 10369 ft | 296 kts | 185° |
| 2026-04-26 18:03 | 49.32334 | 44.32804 | 10209 ft | 284 kts | 185° |
| 2026-04-26 18:03 | 49.30397 | 44.32834 | 10055 ft | 271 kts | 185° |
| 2026-04-26 18:04 | 49.28543 | 44.32861 | 9912 ft | 260 kts | 186° |
| 2026-04-26 18:04 | 49.26774 | 44.32884 | 9663 ft | 255 kts | 186° |
| 2026-04-26 18:04 | 49.24998 | 44.32902 | 9277 ft | 255 kts | 186° |
| 2026-04-26 18:05 | 49.21472 | 44.32944 | 8573 ft | 251 kts | 186° |
| 2026-04-26 18:05 | 49.19730 | 44.32969 | 8245 ft | 249 kts | 186° |
| 2026-04-26 18:05 | 49.17995 | 44.32995 | 7916 ft | 247 kts | 186° |
| 2026-04-26 18:05 | 49.16294 | 44.33036 | 7589 ft | 246 kts | 182° |
| 2026-04-26 18:06 | 49.14586 | 44.33528 | 7261 ft | 252 kts | 169° |
| 2026-04-26 18:06 | 49.12970 | 44.34580 | 6936 ft | 255 kts | 161° |
| 2026-04-26 18:06 | 49.11390 | 44.35802 | 6619 ft | 254 kts | 160° |
| 2026-04-26 18:06 | 49.09822 | 44.37039 | 6299 ft | 252 kts | 160° |
| 2026-04-26 18:07 | 49.08245 | 44.38278 | 5969 ft | 251 kts | 160° |
| 2026-04-26 18:07 | 49.06713 | 44.39476 | 5651 ft | 249 kts | 160° |
| 2026-04-26 18:07 | 49.05168 | 44.40681 | 5333 ft | 247 kts | 160° |
| 2026-04-26 18:07 | 49.04656 | 44.41080 | 5224 ft | 247 kts | 160° |
| 2026-04-26 18:08 | 49.02141 | 44.43037 | 4725 ft | 243 kts | 160° |
| 2026-04-26 18:08 | 49.00629 | 44.44212 | 4423 ft | 241 kts | 160° |
| 2026-04-26 18:08 | 48.99148 | 44.45359 | 4125 ft | 238 kts | 160° |
| 2026-04-26 18:08 | 48.97687 | 44.46492 | 3845 ft | 235 kts | 160° |
| 2026-04-26 18:09 | 48.96231 | 44.47619 | 3549 ft | 233 kts | 160° |
| 2026-04-26 18:09 | 48.94809 | 44.48722 | 3441 ft | 222 kts | 160° |
| 2026-04-26 18:09 | 48.93485 | 44.49743 | 3423 ft | 207 kts | 161° |
| 2026-04-26 18:09 | 48.92219 | 44.50670 | 3391 ft | 193 kts | 162° |
| 2026-04-26 18:10 | 48.91048 | 44.51516 | 3348 ft | 180 kts | 162° |
| 2026-04-26 18:10 | 48.89936 | 44.52314 | 3307 ft | 176 kts | 163° |
| 2026-04-26 18:10 | 48.88809 | 44.53118 | 3241 ft | 176 kts | 163° |
| 2026-04-26 18:10 | 48.87698 | 44.53913 | 3112 ft | 175 kts | 162° |
| 2026-04-26 18:11 | 48.86606 | 44.54656 | 2976 ft | 171 kts | 173° |
| 2026-04-26 18:11 | 48.85487 | 44.54514 | 2743 ft | 162 kts | 211° |
| 2026-04-26 18:11 | 48.84629 | 44.53391 | 2705 ft | 164 kts | 226° |
| 2026-04-26 18:11 | 48.83967 | 44.51980 | 2736 ft | 166 kts | 234° |
| 2026-04-26 18:12 | 48.83399 | 44.50428 | 2622 ft | 167 kts | 237° |
| 2026-04-26 18:12 | 48.82916 | 44.48927 | 2478 ft | 152 kts | 238° |
| 2026-04-26 18:12 | 48.82478 | 44.47532 | 2237 ft | 141 kts | 238° |
| 2026-04-26 18:12 | 48.82061 | 44.46217 | 2030 ft | 137 kts | 238° |
| 2026-04-26 18:13 | 48.81646 | 44.44919 | 1863 ft | 136 kts | 237° |
| 2026-04-26 18:13 | 48.81235 | 44.43634 | 1685 ft | 136 kts | 238° |
| 2026-04-26 18:13 | 48.80821 | 44.42332 | 1487 ft | 135 kts | 238° |
| 2026-04-26 18:13 | 48.80688 | 44.41912 | 1432 ft | 135 kts | 238° |
| 2026-04-26 18:14 | 48.80006 | 44.39764 | 1121 ft | 135 kts | 239° |
| 2026-04-26 18:14 | 48.79602 | 44.38463 | 949 ft | 134 kts | 239° |
| 2026-04-26 18:14 | 48.79191 | 44.37197 | 767 ft | 133 kts | 239° |
| 2026-04-26 18:14 | 48.78781 | 44.35931 | 602 ft | 132 kts | 239° |
| 2026-04-26 18:15 | 48.78391 | 44.34692 | 460 ft | 125 kts | 240° |
| 2026-04-26 18:15 | 48.78072 | 44.33722 | 440 ft | 78 kts | 244° |
| 2026-04-26 18:15 | 48.77872 | 44.33078 | 426 ft | 62 kts | 245° |
| 2026-04-26 18:15 | 48.77702 | 44.32548 | 415 ft | 54 kts | 244° |
| 2026-04-26 18:16 | 48.77557 | 44.32082 | 406 ft | 38 kts | 244° |
| 2026-04-26 18:16 | 48.77638 | 44.31788 | 399 ft | 13 kts | 32° |
| 2026-04-26 18:16 | 48.77682 | 44.31904 | 401 ft | 12 kts | 66° |
| 2026-04-26 18:17 | 48.77717 | 44.32012 | 404 ft | 10 kts | 62° |
| 2026-04-26 18:17 | 48.77749 | 44.32107 | 406 ft | 9 kts | 64° |
| 2026-04-26 18:17 | 48.77777 | 44.32197 | 408 ft | 9 kts | 65° |
| 2026-04-26 18:17 | 48.77802 | 44.32282 | 410 ft | 8 kts | 64° |
| 2026-04-26 18:18 | 48.77827 | 44.32360 | 412 ft | 8 kts | 64° |
| 2026-04-26 18:18 | 48.77857 | 44.32452 | 415 ft | 10 kts | 64° |
| 2026-04-26 18:18 | 48.77894 | 44.32570 | 417 ft | 13 kts | 64° |
| 2026-04-26 18:18 | 48.77940 | 44.32714 | 421 ft | 16 kts | 63° |
| 2026-04-26 18:19 | 48.77993 | 44.32879 | 424 ft | 18 kts | 64° |
| 2026-04-26 18:19 | 48.78050 | 44.33061 | 428 ft | 19 kts | 65° |
| 2026-04-26 18:19 | 48.78113 | 44.33254 | 432 ft | 21 kts | 64° |
| 2026-04-26 18:19 | 48.78177 | 44.33460 | 436 ft | 22 kts | 65° |
| 2026-04-26 18:20 | 48.78247 | 44.33673 | 440 ft | 22 kts | 63° |
| 2026-04-26 18:20 | 48.78316 | 44.33892 | 445 ft | 23 kts | 65° |
| 2026-04-26 18:20 | 48.78383 | 44.34110 | 449 ft | 20 kts | 62° |
| 2026-04-26 18:20 | 48.78407 | 44.34167 | 450 ft | 17 kts | 45° |
| 2026-04-26 18:21 | 48.78611 | 44.34145 | 447 ft | 15 kts | 2° |
| 2026-04-26 18:21 | 48.78673 | 44.34264 | 448 ft | 15 kts | 68° |
| 2026-04-26 18:21 | 48.78708 | 44.34408 | 451 ft | 14 kts | 69° |
| 2026-04-26 18:21 | 48.78744 | 44.34544 | 455 ft | 13 kts | 70° |
| 2026-04-26 18:22 | 48.78777 | 44.34674 | 458 ft | 13 kts | 69° |
| 2026-04-26 18:22 | 48.78809 | 44.34805 | 462 ft | 12 kts | 69° |
| 2026-04-26 18:22 | 48.78840 | 44.34929 | 466 ft | 12 kts | 70° |
| 2026-04-26 18:22 | 48.78870 | 44.35046 | 469 ft | 11 kts | 63° |
| 2026-04-26 18:23 | 48.78926 | 44.35142 | 471 ft | 13 kts | 62° |
| 2026-04-26 18:23 | 48.78959 | 44.35274 | 472 ft | 12 kts | 71° |
| 2026-04-26 18:23 | 48.78983 | 44.35370 | 471 ft | 6 kts | 67° |
| 2026-04-26 18:23 | 48.79013 | 44.35410 | 471 ft | 6 kts | 352° |
| 2026-04-26 18:24 | 48.79034 | 44.35399 | 471 ft | 0 kts | 338° |
| 2026-04-26 18:24 | 48.79048 | 44.35390 | 471 ft | 2 kts | 339° |
| 2026-04-26 18:24 | 48.79051 | 44.35389 | 471 ft | 0 kts | 339° |